createdAt,value
2018-08-12T00:04:55.006Z,81.34
2018-08-12T00:07:23.486Z,81.25
2018-08-12T00:09:51.896Z,81.13
2018-08-12T00:12:20.399Z,81.75
2018-08-12T00:14:48.833Z,81.49
2018-08-12T00:17:17.260Z,81.50
2018-08-12T00:19:45.694Z,81.37
2018-08-12T00:22:14.151Z,81.35
2018-08-12T00:24:42.604Z,80.93
2018-08-12T00:27:11.012Z,80.77
2018-08-12T00:29:39.445Z,80.88
2018-08-12T00:32:07.875Z,81.33
2018-08-12T00:34:36.403Z,81.45
2018-08-12T00:37:05.711Z,81.17
2018-08-12T00:39:34.592Z,81.10
2018-08-12T00:42:03.024Z,81.33
2018-08-12T00:44:31.622Z,81.19
2018-08-12T00:47:00.072Z,81.02
2018-08-12T00:49:28.559Z,81.14
2018-08-12T00:51:57.021Z,81.21
2018-08-12T00:54:25.445Z,81.31
2018-08-12T00:56:54.015Z,81.60
2018-08-12T00:59:22.417Z,81.61
2018-08-12T01:01:50.972Z,81.55
2018-08-12T01:04:19.404Z,81.23
2018-08-12T01:06:47.883Z,81.36
2018-08-12T01:09:16.354Z,81.72
2018-08-12T01:11:44.817Z,81.80
2018-08-12T01:14:13.280Z,81.94
2018-08-12T01:16:41.723Z,81.92
2018-08-12T01:19:10.188Z,81.83
2018-08-12T01:21:39.664Z,81.53
2018-08-12T01:24:08.111Z,81.31
2018-08-12T01:26:36.536Z,81.35
2018-08-12T01:29:05.429Z,81.09
2018-08-12T01:31:33.900Z,81.23
2018-08-12T01:34:02.342Z,81.67
2018-08-12T01:36:30.779Z,81.98
2018-08-12T01:38:59.337Z,81.84
2018-08-12T01:41:27.784Z,81.89
2018-08-12T01:43:56.211Z,81.98
2018-08-12T01:46:24.690Z,81.59
2018-08-12T01:48:53.268Z,81.81
2018-08-12T01:51:21.687Z,81.79
2018-08-12T01:53:50.127Z,81.34
2018-08-12T01:56:18.599Z,81.92
2018-08-12T01:58:47.023Z,81.42
2018-08-12T02:01:15.509Z,81.72
2018-08-12T02:03:43.940Z,81.84
2018-08-12T02:06:12.391Z,81.89
2018-08-12T02:08:40.854Z,81.72
2018-08-12T02:12:12.855Z,82.30
2018-08-12T02:14:41.277Z,81.96
2018-08-12T02:17:10.065Z,81.53
2018-08-12T02:19:38.532Z,81.93
2018-08-12T02:22:07.064Z,82.08
2018-08-12T02:24:35.573Z,82.14
2018-08-12T02:27:03.985Z,82.29
2018-08-12T02:29:32.429Z,81.88
2018-08-12T02:32:00.875Z,81.69
2018-08-12T02:34:29.317Z,81.72
2018-08-12T02:36:57.722Z,81.89
2018-08-12T02:39:26.152Z,81.75
2018-08-12T02:41:54.558Z,82.08
2018-08-12T02:44:22.977Z,82.20
2018-08-12T02:46:51.413Z,82.08
2018-08-12T02:49:19.838Z,83.04
2018-08-12T02:51:48.373Z,82.64
2018-08-12T02:54:16.776Z,82.56
2018-08-12T02:56:45.212Z,82.79
2018-08-12T02:59:13.656Z,82.44
2018-08-12T03:01:42.127Z,82.59
2018-08-12T03:04:10.683Z,82.34
2018-08-12T03:06:39.121Z,82.16
2018-08-12T03:09:10.356Z,82.31
2018-08-12T03:11:38.826Z,82.62
2018-08-12T03:14:07.853Z,82.83
2018-08-12T03:16:36.311Z,82.51
2018-08-12T03:19:04.813Z,82.58
2018-08-12T03:21:33.231Z,82.35
2018-08-12T03:24:01.673Z,82.83
2018-08-12T03:26:30.103Z,82.57
2018-08-12T03:28:58.536Z,82.42
2018-08-12T03:31:26.961Z,82.92
2018-08-12T03:33:55.635Z,82.57
2018-08-12T03:36:24.173Z,82.56
2018-08-12T03:38:52.767Z,82.07
2018-08-12T03:41:21.213Z,82.29
2018-08-12T03:43:49.897Z,82.36
2018-08-12T03:46:18.358Z,82.79
2018-08-12T03:48:46.849Z,82.77
2018-08-12T03:51:15.235Z,82.61
2018-08-12T03:53:43.647Z,82.67
2018-08-12T03:56:12.123Z,82.60
2018-08-12T03:58:40.557Z,82.65
2018-08-12T04:01:08.992Z,82.48
2018-08-12T04:03:37.445Z,82.37
2018-08-12T04:06:05.884Z,82.56
2018-08-12T04:08:34.378Z,82.26
2018-08-12T04:11:02.807Z,82.09
2018-08-12T04:13:31.254Z,82.18
2018-08-12T04:15:59.771Z,82.18
2018-08-12T04:18:28.212Z,82.16
2018-08-12T04:20:56.632Z,81.98
2018-08-12T04:23:25.084Z,82.13
2018-08-12T04:25:53.527Z,81.77
2018-08-12T04:28:21.974Z,82.07
2018-08-12T04:30:50.449Z,82.14
2018-08-12T04:33:18.878Z,82.22
2018-08-12T04:35:47.296Z,82.35
2018-08-12T04:38:15.745Z,82.45
2018-08-12T04:40:44.161Z,82.78
2018-08-12T04:43:12.578Z,82.84
2018-08-12T04:45:41.012Z,82.55
2018-08-12T04:48:09.416Z,82.65
2018-08-12T04:50:37.852Z,82.23
2018-08-12T04:53:06.300Z,82.48
2018-08-12T04:55:34.721Z,82.48
2018-08-12T04:58:03.555Z,82.40
2018-08-12T05:00:31.971Z,82.38
2018-08-12T05:03:00.457Z,83.03
2018-08-12T05:05:28.911Z,82.55
2018-08-12T05:07:57.334Z,82.74
2018-08-12T05:10:25.759Z,82.23
2018-08-12T05:12:54.230Z,82.22
2018-08-12T05:15:22.660Z,81.93
2018-08-12T05:17:51.146Z,81.88
2018-08-12T05:20:19.597Z,81.99
2018-08-12T05:22:48.012Z,82.09
2018-08-12T05:25:16.535Z,82.62
2018-08-12T05:27:44.930Z,82.60
2018-08-12T05:30:13.371Z,82.64
2018-08-12T05:32:42.487Z,82.48
2018-08-12T05:35:12.865Z,82.48
2018-08-12T05:37:41.283Z,82.27
2018-08-12T05:40:11.181Z,82.18
2018-08-12T05:42:39.598Z,82.45
2018-08-12T05:45:09.151Z,82.40
2018-08-12T05:47:37.937Z,82.10
2018-08-12T05:50:07.055Z,81.95
2018-08-12T05:52:35.505Z,81.75
2018-08-12T05:55:04.247Z,81.84
2018-08-12T05:57:32.708Z,81.64
2018-08-12T06:00:01.442Z,81.31
2018-08-12T06:02:30.962Z,81.40
2018-08-12T06:04:59.797Z,80.99
2018-08-12T06:07:28.314Z,81.41
2018-08-12T06:09:56.793Z,80.85
2018-08-12T06:12:25.748Z,81.26
2018-08-12T06:14:54.220Z,81.01
2018-08-12T06:17:22.776Z,80.69
2018-08-12T06:19:51.299Z,80.89
2018-08-12T06:22:19.785Z,81.04
2018-08-12T06:24:48.266Z,80.17
2018-08-12T06:27:16.737Z,80.76
2018-08-12T06:29:45.305Z,80.28
2018-08-12T06:32:13.808Z,80.64
2018-08-12T06:34:42.320Z,80.70
2018-08-12T06:37:10.864Z,80.60
2018-08-12T06:39:39.327Z,80.62
2018-08-12T06:42:07.931Z,80.45
2018-08-12T06:44:36.511Z,80.61
2018-08-12T06:47:05.092Z,80.00
2018-08-12T06:49:33.532Z,79.35
2018-08-12T06:52:02.072Z,79.54
2018-08-12T06:54:30.557Z,79.73
2018-08-12T06:56:59.107Z,79.43
2018-08-12T06:59:27.644Z,78.86
2018-08-12T07:01:56.256Z,78.86
2018-08-12T07:04:24.805Z,78.07
2018-08-12T07:06:53.325Z,77.81
2018-08-12T07:09:21.845Z,76.49
2018-08-12T07:11:50.356Z,75.24
2018-08-12T07:14:18.870Z,75.11
2018-08-12T07:16:47.288Z,74.73
2018-08-12T07:19:15.763Z,73.60
2018-08-12T07:21:44.240Z,71.80
2018-08-12T07:24:12.663Z,71.80
2018-08-12T07:26:41.157Z,71.32
2018-08-12T07:29:09.929Z,69.93
2018-08-12T07:31:38.498Z,68.73
2018-08-12T07:34:07.049Z,68.14
2018-08-12T07:36:35.601Z,68.73
2018-08-12T07:39:05.696Z,69.05
2018-08-12T07:41:34.205Z,68.48
2018-08-12T07:44:02.776Z,67.62
2018-08-12T07:46:31.666Z,67.69
2018-08-12T07:49:00.240Z,66.67
2018-08-12T07:51:28.771Z,66.67
2018-08-12T07:53:57.320Z,67.45
2018-08-12T07:56:25.908Z,65.51
2018-08-12T07:58:54.488Z,65.31
2018-08-12T08:01:23.019Z,64.90
2018-08-12T08:03:51.668Z,62.92
2018-08-12T08:06:20.211Z,62.72
2018-08-12T08:08:48.732Z,62.66
2018-08-12T08:11:17.207Z,62.48
2018-08-12T08:13:45.660Z,62.84
2018-08-12T08:16:14.818Z,62.11
2018-08-12T08:18:43.381Z,61.96
2018-08-12T08:21:11.869Z,60.02
2018-08-12T08:23:40.351Z,59.18
2018-08-12T08:26:08.872Z,58.71
2018-08-12T08:28:37.536Z,59.03
2018-08-12T08:31:06.286Z,57.93
2018-08-12T08:33:34.832Z,57.76
2018-08-12T08:36:03.564Z,56.70
2018-08-12T08:38:32.093Z,58.09
2018-08-12T08:41:00.686Z,56.97
2018-08-12T08:43:29.222Z,56.44
2018-08-12T08:45:57.794Z,56.16
2018-08-12T08:48:26.336Z,56.50
2018-08-12T08:50:54.785Z,55.96
2018-08-12T08:53:23.260Z,55.92
2018-08-12T08:55:51.882Z,54.85
2018-08-12T08:58:20.293Z,54.73
2018-08-12T09:00:48.755Z,54.67
2018-08-12T09:03:17.268Z,55.77
2018-08-12T09:05:45.892Z,52.66
2018-08-12T09:08:15.115Z,53.72
2018-08-12T09:10:43.423Z,53.06
2018-08-12T09:13:11.911Z,52.11
2018-08-12T09:15:40.593Z,52.29
2018-08-12T09:18:09.136Z,51.24
2018-08-12T09:20:37.593Z,50.80
2018-08-12T09:23:06.082Z,50.44
2018-08-12T09:25:34.620Z,50.72
2018-08-12T09:28:03.067Z,48.67
2018-08-12T09:30:31.516Z,47.79
2018-08-12T09:33:00.099Z,48.13
2018-08-12T09:35:28.558Z,46.20
2018-08-12T09:37:57.062Z,47.58
2018-08-12T09:40:25.685Z,46.15
2018-08-12T09:42:54.155Z,47.61
2018-08-12T09:45:22.772Z,47.65
2018-08-12T09:47:51.298Z,47.47
2018-08-12T09:50:20.488Z,46.94
2018-08-12T09:52:50.203Z,45.94
2018-08-12T09:55:19.443Z,47.29
2018-08-12T09:57:47.931Z,47.52
2018-08-12T10:00:22.766Z,48.27
2018-08-12T10:02:52.724Z,49.05
2018-08-12T10:05:21.385Z,50.18
2018-08-12T10:07:49.879Z,46.55
2018-08-12T10:10:18.505Z,46.85
2018-08-12T10:12:47.249Z,46.01
2018-08-12T10:15:16.344Z,47.69
2018-08-12T10:17:48.005Z,46.87
2018-08-12T10:20:16.560Z,46.67
2018-08-12T10:22:45.187Z,45.82
2018-08-12T10:25:13.717Z,45.66
2018-08-12T10:27:42.196Z,45.60
2018-08-12T10:30:12.536Z,46.29
2018-08-12T10:32:41.012Z,46.26
2018-08-12T10:35:11.941Z,46.75
2018-08-12T10:37:40.807Z,46.28
2018-08-12T10:40:17.886Z,46.13
2018-08-12T10:42:47.364Z,46.06
2018-08-12T10:45:15.920Z,45.96
2018-08-12T10:47:44.663Z,45.79
2018-08-12T10:50:15.548Z,45.85
2018-08-12T10:52:45.054Z,47.03
2018-08-12T10:55:14.792Z,46.60
2018-08-12T10:57:43.318Z,47.18
2018-08-12T11:00:15.999Z,47.24
2018-08-12T11:02:45.028Z,47.59
2018-08-12T11:05:14.349Z,45.76
2018-08-12T11:07:43.089Z,46.88
2018-08-12T11:10:12.408Z,46.37
2018-08-12T11:12:41.078Z,46.35
2018-08-12T11:15:10.212Z,45.24
2018-08-12T11:17:39.232Z,45.70
2018-08-12T11:20:08.196Z,46.72
2018-08-12T11:22:36.740Z,45.95
2018-08-12T11:25:05.797Z,44.62
2018-08-12T11:27:34.764Z,45.40
2018-08-12T11:30:03.328Z,45.70
2018-08-12T11:32:31.752Z,45.00
2018-08-12T11:35:00.268Z,45.41
2018-08-12T11:37:28.721Z,44.80
2018-08-12T11:39:57.180Z,45.61
2018-08-12T11:42:25.717Z,45.20
2018-08-12T11:44:54.207Z,45.11
2018-08-12T11:47:22.739Z,44.25
2018-08-12T11:49:51.244Z,44.20
2018-08-12T11:52:19.728Z,45.04
2018-08-12T11:54:48.234Z,45.09
2018-08-12T11:57:16.721Z,44.95
2018-08-12T11:59:45.229Z,46.41
2018-08-12T12:02:13.846Z,45.19
2018-08-12T12:04:42.213Z,46.46
2018-08-12T12:07:10.773Z,47.13
2018-08-12T12:09:39.276Z,46.66
2018-08-12T12:12:07.784Z,45.20
2018-08-12T12:14:36.291Z,46.25
2018-08-12T12:17:04.902Z,45.63
2018-08-12T12:19:33.531Z,45.10
2018-08-12T12:22:01.992Z,45.34
2018-08-12T12:24:30.458Z,45.23
2018-08-12T12:26:59.047Z,45.67
2018-08-12T12:29:27.543Z,45.86
2018-08-12T12:31:56.441Z,45.83
2018-08-12T12:34:24.953Z,45.08
2018-08-12T12:36:53.384Z,45.32
2018-08-12T12:39:21.919Z,44.78
2018-08-12T12:41:50.362Z,46.16
2018-08-12T12:44:18.804Z,45.75
2018-08-12T12:46:47.291Z,46.50
2018-08-12T12:49:15.868Z,46.75
2018-08-12T12:51:44.304Z,45.01
2018-08-12T12:54:12.753Z,45.39
2018-08-12T12:56:41.447Z,46.15
2018-08-12T12:59:09.916Z,46.01
2018-08-12T13:01:38.385Z,45.30
2018-08-12T13:04:07.287Z,45.03
2018-08-12T13:06:35.877Z,46.19
2018-08-12T13:09:06.495Z,45.95
2018-08-12T13:11:35.317Z,45.89
2018-08-12T13:14:04.389Z,44.98
2018-08-12T13:16:32.885Z,45.05
2018-08-12T13:19:01.373Z,44.00
2018-08-12T13:21:29.828Z,44.89
2018-08-12T13:23:58.363Z,44.64
2018-08-12T13:26:26.891Z,44.45
2018-08-12T13:28:55.444Z,43.76
2018-08-12T13:31:23.967Z,43.91
2018-08-12T13:33:52.595Z,43.13
2018-08-12T13:36:22.366Z,42.71
2018-08-12T13:38:50.963Z,41.50
2018-08-12T13:41:19.469Z,42.17
2018-08-12T13:43:48.033Z,40.95
2018-08-12T13:46:16.487Z,42.11
2018-08-12T13:48:45.442Z,41.54
2018-08-12T13:51:13.881Z,42.59
2018-08-12T13:53:42.303Z,43.15
2018-08-12T13:56:10.868Z,43.59
2018-08-12T13:58:39.580Z,43.22
2018-08-12T14:01:16.537Z,42.64
2018-08-12T14:03:45.126Z,43.05
2018-08-12T14:06:13.669Z,42.00
2018-08-12T14:08:42.153Z,42.83
2018-08-12T14:11:10.726Z,42.05
2018-08-12T14:13:39.302Z,42.26
2018-08-12T14:16:07.788Z,43.88
2018-08-12T14:18:36.344Z,42.69
2018-08-12T14:21:05.017Z,42.26
2018-08-12T14:23:34.341Z,41.84
2018-08-12T14:26:03.608Z,42.54
2018-08-12T14:28:32.236Z,43.37
2018-08-12T14:31:10.713Z,42.72
2018-08-12T14:33:39.654Z,42.93
2018-08-12T14:36:08.152Z,43.89
2018-08-12T14:38:36.617Z,43.76
2018-08-12T14:41:05.117Z,44.19
2018-08-12T14:43:33.705Z,43.46
2018-08-12T14:46:02.152Z,43.38
2018-08-12T14:48:30.637Z,42.54
2018-08-12T14:50:59.073Z,43.24
2018-08-12T14:53:27.911Z,43.87
2018-08-12T14:55:56.338Z,42.56
2018-08-12T14:58:24.769Z,43.75
2018-08-12T15:00:53.232Z,44.40
2018-08-12T15:03:21.669Z,45.12
2018-08-12T15:05:50.200Z,44.61
2018-08-12T15:08:18.642Z,45.47
2018-08-12T15:10:47.097Z,43.76
2018-08-12T15:13:15.540Z,44.50
2018-08-12T15:15:44.012Z,44.81
2018-08-12T15:18:12.448Z,45.01
2018-08-12T15:20:40.892Z,45.34
2018-08-12T15:23:09.332Z,43.98
2018-08-12T15:25:37.784Z,45.45
2018-08-12T15:28:06.239Z,44.03
2018-08-12T15:30:34.678Z,45.38
2018-08-12T15:33:03.122Z,44.91
2018-08-12T15:35:31.524Z,45.68
2018-08-12T15:37:59.968Z,44.67
2018-08-12T15:40:28.403Z,46.38
2018-08-12T15:42:56.849Z,46.13
2018-08-12T15:45:25.292Z,43.63
2018-08-12T15:47:53.736Z,44.82
2018-08-12T15:50:22.184Z,44.75
2018-08-12T15:52:50.601Z,44.41
2018-08-12T15:55:19.025Z,45.47
2018-08-12T15:57:47.436Z,45.02
2018-08-12T16:00:17.986Z,44.65
2018-08-12T16:02:46.664Z,44.69
2018-08-12T16:05:15.165Z,45.33
2018-08-12T16:07:44.362Z,45.19
2018-08-12T16:10:15.254Z,45.35
2018-08-12T16:12:43.788Z,45.39
2018-08-12T16:15:13.033Z,45.90
2018-08-12T16:17:42.169Z,46.04
2018-08-12T16:20:11.225Z,45.40
2018-08-12T16:22:39.661Z,43.34
2018-08-12T16:25:10.900Z,44.86
2018-08-12T16:27:39.452Z,45.00
2018-08-12T16:30:09.225Z,45.54
2018-08-12T16:32:44.097Z,45.71
2018-08-12T16:35:13.799Z,46.63
2018-08-12T16:37:43.079Z,47.24
2018-08-12T16:40:13.328Z,45.49
2018-08-12T16:42:41.884Z,45.15
2018-08-12T16:45:12.012Z,44.46
2018-08-12T16:47:40.448Z,44.28
2018-08-12T16:50:09.888Z,47.00
2018-08-12T16:52:38.691Z,48.79
2018-08-12T16:55:09.328Z,47.43
2018-08-12T16:57:37.799Z,46.68
2018-08-12T17:00:11.712Z,47.98
2018-08-12T17:02:40.168Z,45.35
2018-08-12T17:05:11.372Z,47.38
2018-08-12T17:07:40.009Z,48.27
2018-08-12T17:10:09.653Z,48.24
2018-08-12T17:12:38.147Z,48.04
2018-08-12T17:15:08.183Z,49.22
2018-08-12T17:17:36.686Z,48.61
2018-08-12T17:20:07.282Z,49.02
2018-08-12T17:22:35.849Z,48.37
2018-08-12T17:25:05.323Z,47.05
2018-08-12T17:27:34.068Z,49.20
2018-08-12T17:30:02.754Z,49.75
2018-08-12T17:32:32.213Z,49.53
2018-08-12T17:35:01.220Z,49.48
2018-08-12T17:37:30.522Z,50.22
2018-08-12T17:39:59.033Z,50.90
2018-08-12T17:42:27.903Z,50.61
2018-08-12T17:44:56.363Z,50.28
2018-08-12T17:47:24.835Z,50.18
2018-08-12T17:49:53.368Z,50.25
2018-08-12T17:52:21.826Z,51.17
2018-08-12T17:54:50.360Z,53.53
2018-08-12T17:57:18.799Z,53.49
2018-08-12T17:59:47.224Z,53.19
2018-08-12T18:02:15.752Z,52.52
2018-08-12T18:04:44.288Z,54.45
2018-08-12T18:07:12.841Z,53.86
2018-08-12T18:09:41.316Z,54.54
2018-08-12T18:12:09.872Z,55.13
2018-08-12T18:14:38.371Z,56.12
2018-08-12T18:17:06.910Z,56.60
2018-08-12T18:19:35.695Z,57.16
2018-08-12T18:22:04.284Z,56.96
2018-08-12T18:24:32.744Z,56.87
2018-08-12T18:27:01.415Z,57.70
2018-08-12T18:29:29.851Z,58.28
2018-08-12T18:31:58.340Z,58.17
2018-08-12T18:34:26.779Z,59.17
2018-08-12T18:36:55.321Z,58.85
2018-08-12T18:39:23.978Z,58.95
2018-08-12T18:41:52.546Z,59.58
2018-08-12T18:44:21.001Z,60.08
2018-08-12T18:46:49.454Z,59.76
2018-08-12T18:49:18.029Z,60.43
2018-08-12T18:51:46.510Z,60.53
2018-08-12T18:54:14.990Z,60.70
2018-08-12T18:56:43.509Z,60.30
2018-08-12T18:59:11.972Z,60.99
2018-08-12T19:01:40.540Z,60.28
2018-08-12T19:04:09.052Z,60.93
2018-08-12T19:06:37.520Z,60.57
2018-08-12T19:09:09.011Z,61.84
2018-08-12T19:11:37.551Z,62.33
2018-08-12T19:14:06.393Z,62.45
2018-08-12T19:16:34.895Z,62.80
2018-08-12T19:19:03.672Z,63.44
2018-08-12T19:21:32.448Z,63.06
2018-08-12T19:24:00.975Z,62.87
2018-08-12T19:26:29.536Z,63.06
2018-08-12T19:28:58.333Z,62.09
2018-08-12T19:31:26.839Z,62.50
2018-08-12T19:33:55.280Z,61.81
2018-08-12T19:36:23.795Z,62.33
2018-08-12T19:38:52.451Z,62.79
2018-08-12T19:41:21.054Z,62.96
2018-08-12T19:43:49.563Z,63.49
2018-08-12T19:46:18.117Z,63.93
2018-08-12T19:48:46.588Z,64.31
2018-08-12T19:51:15.065Z,64.21
2018-08-12T19:53:43.539Z,64.63
2018-08-12T19:56:11.996Z,64.83
2018-08-12T19:58:40.568Z,64.86
2018-08-12T20:01:09.084Z,65.37
2018-08-12T20:03:37.568Z,66.56
2018-08-12T20:06:06.140Z,66.50
2018-08-12T20:08:34.608Z,66.91
2018-08-12T20:11:03.096Z,65.67
2018-08-12T20:13:31.624Z,65.03
2018-08-12T20:16:00.163Z,65.05
2018-08-12T20:18:28.698Z,64.76
2018-08-12T20:20:57.253Z,64.77
2018-08-12T20:23:25.748Z,64.98
2018-08-12T20:25:54.303Z,64.85
2018-08-12T20:28:22.858Z,65.23
2018-08-12T20:30:51.348Z,65.12
2018-08-12T20:33:19.869Z,65.06
2018-08-12T20:35:48.499Z,65.01
2018-08-12T20:38:17.051Z,64.65
2018-08-12T20:40:45.512Z,64.68
2018-08-12T20:43:13.979Z,64.83
2018-08-12T20:45:42.528Z,64.71
2018-08-12T20:48:11.039Z,64.73
2018-08-12T20:50:39.537Z,65.05
2018-08-12T20:53:08.279Z,65.21
2018-08-12T20:55:36.735Z,65.12
2018-08-12T20:58:05.292Z,65.00
2018-08-12T21:00:34.384Z,64.88
2018-08-12T21:03:02.848Z,65.00
2018-08-12T21:05:31.325Z,65.21
2018-08-12T21:07:59.773Z,65.56
2018-08-12T21:10:28.818Z,65.57
2018-08-12T21:12:57.300Z,65.86
2018-08-12T21:15:25.815Z,65.94
2018-08-12T21:17:54.292Z,65.89
2018-08-12T21:20:22.916Z,66.15
2018-08-12T21:22:51.484Z,66.10
2018-08-12T21:25:19.964Z,65.81
2018-08-12T21:27:48.478Z,65.94
2018-08-12T21:30:16.996Z,65.75
2018-08-12T21:32:45.612Z,65.32
2018-08-12T21:35:14.277Z,65.35
2018-08-12T21:37:42.783Z,65.36
2018-08-12T21:40:11.237Z,65.75
2018-08-12T21:42:39.942Z,66.40
2018-08-12T21:45:08.438Z,66.53
2018-08-12T21:47:36.940Z,66.42
2018-08-12T21:50:05.516Z,66.64
2018-08-12T21:52:34.024Z,67.00
2018-08-12T21:55:02.528Z,67.07
2018-08-12T21:57:31.017Z,67.43
2018-08-12T21:59:59.515Z,68.17
2018-08-12T22:02:28.020Z,67.96
2018-08-12T22:04:56.493Z,67.05
2018-08-12T22:07:24.985Z,66.99
2018-08-12T22:09:53.557Z,67.50
2018-08-12T22:12:22.032Z,68.03
2018-08-12T22:14:50.684Z,68.44
2018-08-12T22:17:19.184Z,69.19
2018-08-12T22:19:47.740Z,69.91
2018-08-12T22:22:16.679Z,70.50
2018-08-12T22:24:45.180Z,70.98
2018-08-12T22:27:13.665Z,71.16
2018-08-12T22:29:42.202Z,70.65
2018-08-12T22:32:10.711Z,69.68
2018-08-12T22:34:39.214Z,68.98
2018-08-12T22:37:07.724Z,69.08
2018-08-12T22:39:36.277Z,69.46
2018-08-12T22:42:04.788Z,69.44
2018-08-12T22:44:33.300Z,69.02
2018-08-12T22:47:01.795Z,69.57
2018-08-12T22:49:30.340Z,69.59
2018-08-12T22:51:58.852Z,69.64
2018-08-12T22:54:27.351Z,69.62
2018-08-12T22:56:55.849Z,69.87
2018-08-12T22:59:24.361Z,69.54
2018-08-12T23:01:52.880Z,69.60
2018-08-12T23:04:21.426Z,69.60
2018-08-12T23:06:50.046Z,69.57
2018-08-12T23:09:18.519Z,69.77
2018-08-12T23:11:47.040Z,69.72
2018-08-12T23:14:15.496Z,69.72
2018-08-12T23:17:01.905Z,69.68
2018-08-12T23:19:30.627Z,70.01
2018-08-12T23:21:59.290Z,70.26
2018-08-12T23:24:27.751Z,70.75
2018-08-12T23:26:56.285Z,70.94
2018-08-12T23:29:24.820Z,71.26
2018-08-12T23:31:53.385Z,71.79
2018-08-12T23:34:21.865Z,72.20
2018-08-12T23:36:50.434Z,72.01
2018-08-12T23:39:18.895Z,72.17
2018-08-12T23:41:47.427Z,72.27
2018-08-12T23:44:15.927Z,71.91
2018-08-12T23:46:44.613Z,71.89
2018-08-12T23:49:13.120Z,71.88
2018-08-12T23:51:41.596Z,71.72
2018-08-12T23:54:10.104Z,71.10
2018-08-12T23:56:38.583Z,70.93
2018-08-12T23:59:07.105Z,70.94
